sensor_id;sensor_type;location;lat;lon;timestamp;P1;durP1;ratioP1;P2;durP2;ratioP2
29120;SDS011;16191;49.548;8.658;2023-02-01T00:00:30;12.43;;;5.22;;
29120;SDS011;16191;49.548;8.658;2023-02-01T00:02:57;6.47;;;4.20;;
29120;SDS011;16191;49.548;8.658;2023-02-01T00:05:24;11.13;;;4.28;;
29120;SDS011;16191;49.548;8.658;2023-02-01T00:07:50;7.47;;;4.50;;
29120;SDS011;16191;49.548;8.658;2023-02-01T00:10:17;8.20;;;3.92;;
29120;SDS011;16191;49.548;8.658;2023-02-01T00:12:44;8.27;;;3.92;;
29120;SDS011;16191;49.548;8.658;2023-02-01T00:15:11;6.93;;;3.85;;
29120;SDS011;16191;49.548;8.658;2023-02-01T00:17:38;8.40;;;4.07;;
29120;SDS011;16191;49.548;8.658;2023-02-01T00:20:05;8.77;;;4.43;;
29120;SDS011;16191;49.548;8.658;2023-02-01T00:22:32;7.60;;;4.10;;
29120;SDS011;16191;49.548;8.658;2023-02-01T00:24:59;10.32;;;4.82;;
29120;SDS011;16191;49.548;8.658;2023-02-01T00:27:25;9.27;;;4.25;;
29120;SDS011;16191;49.548;8.658;2023-02-01T00:29:54;9.63;;;4.38;;
29120;SDS011;16191;49.548;8.658;2023-02-01T00:32:21;8.60;;;4.50;;
29120;SDS011;16191;49.548;8.658;2023-02-01T00:34:48;7.65;;;4.50;;
29120;SDS011;16191;49.548;8.658;2023-02-01T00:37:15;8.48;;;4.75;;
29120;SDS011;16191;49.548;8.658;2023-02-01T00:39:42;7.45;;;4.43;;
29120;SDS011;16191;49.548;8.658;2023-02-01T00:42:09;10.65;;;4.65;;
29120;SDS011;16191;49.548;8.658;2023-02-01T00:44:36;10.98;;;4.97;;
29120;SDS011;16191;49.548;8.658;2023-02-01T00:47:03;9.90;;;5.15;;
29120;SDS011;16191;49.548;8.658;2023-02-01T00:49:30;7.82;;;4.20;;
29120;SDS011;16191;49.548;8.658;2023-02-01T00:51:56;8.45;;;4.55;;
29120;SDS011;16191;49.548;8.658;2023-02-01T00:54:23;7.28;;;4.32;;
29120;SDS011;16191;49.548;8.658;2023-02-01T00:56:50;9.77;;;5.03;;
29120;SDS011;16191;49.548;8.658;2023-02-01T00:59:17;7.88;;;4.45;;
29120;SDS011;16191;49.548;8.658;2023-02-01T01:01:44;6.32;;;4.15;;
29120;SDS011;16191;49.548;8.658;2023-02-01T01:04:11;8.20;;;4.53;;
29120;SDS011;16191;49.548;8.658;2023-02-01T01:06:38;6.88;;;4.13;;
29120;SDS011;16191;49.548;8.658;2023-02-01T01:09:05;7.78;;;4.85;;
29120;SDS011;16191;49.548;8.658;2023-02-01T01:11:34;8.35;;;3.92;;
29120;SDS011;16191;49.548;8.658;2023-02-01T01:14:04;10.05;;;4.43;;
29120;SDS011;16191;49.548;8.658;2023-02-01T01:16:34;6.40;;;4.65;;
29120;SDS011;16191;49.548;8.658;2023-02-01T01:19:01;9.85;;;4.50;;
29120;SDS011;16191;49.548;8.658;2023-02-01T01:21:28;6.75;;;4.28;;
29120;SDS011;16191;49.548;8.658;2023-02-01T01:23:56;9.85;;;4.80;;
29120;SDS011;16191;49.548;8.658;2023-02-01T01:26:24;8.05;;;5.10;;
29120;SDS011;16191;49.548;8.658;2023-02-01T01:28:57;6.38;;;4.45;;
29120;SDS011;16191;49.548;8.658;2023-02-01T01:31:25;7.40;;;4.43;;
29120;SDS011;16191;49.548;8.658;2023-02-01T01:33:54;8.40;;;5.03;;
29120;SDS011;16191;49.548;8.658;2023-02-01T01:36:22;9.90;;;5.18;;
29120;SDS011;16191;49.548;8.658;2023-02-01T01:38:49;7.90;;;4.50;;
29120;SDS011;16191;49.548;8.658;2023-02-01T01:41:28;8.25;;;4.95;;
29120;SDS011;16191;49.548;8.658;2023-02-01T01:44:05;7.45;;;4.70;;
29120;SDS011;16191;49.548;8.658;2023-02-01T01:46:37;8.52;;;5.07;;
29120;SDS011;16191;49.548;8.658;2023-02-01T01:49:11;10.18;;;5.78;;
29120;SDS011;16191;49.548;8.658;2023-02-01T01:52:01;10.18;;;5.25;;
29120;SDS011;16191;49.548;8.658;2023-02-01T01:54:49;9.30;;;5.05;;
29120;SDS011;16191;49.548;8.658;2023-02-01T01:57:39;11.38;;;5.85;;
29120;SDS011;16191;49.548;8.658;2023-02-01T02:00:30;8.27;;;4.68;;
29120;SDS011;16191;49.548;8.658;2023-02-01T02:03:18;10.18;;;4.82;;
29120;SDS011;16191;49.548;8.658;2023-02-01T02:06:10;7.93;;;4.07;;
29120;SDS011;16191;49.548;8.658;2023-02-01T02:08:44;6.82;;;4.40;;
29120;SDS011;16191;49.548;8.658;2023-02-01T02:11:12;6.60;;;3.97;;
29120;SDS011;16191;49.548;8.658;2023-02-01T02:13:44;10.75;;;5.13;;
29120;SDS011;16191;49.548;8.658;2023-02-01T02:16:24;8.68;;;4.45;;
29120;SDS011;16191;49.548;8.658;2023-02-01T02:24:56;12.00;;;5.03;;
29120;SDS011;16191;49.548;8.658;2023-02-01T02:30:36;9.88;;;4.97;;
29120;SDS011;16191;49.548;8.658;2023-02-01T02:38:36;8.88;;;5.30;;
29120;SDS011;16191;49.548;8.658;2023-02-01T02:41:18;13.23;;;6.18;;
29120;SDS011;16191;49.548;8.658;2023-02-01T02:44:09;8.82;;;4.80;;
29120;SDS011;16191;49.548;8.658;2023-02-01T02:47:04;13.57;;;4.88;;
29120;SDS011;16191;49.548;8.658;2023-02-01T02:49:57;11.13;;;4.68;;
29120;SDS011;16191;49.548;8.658;2023-02-01T02:52:58;10.80;;;4.65;;
29120;SDS011;16191;49.548;8.658;2023-02-01T02:55:49;6.72;;;5.05;;
29120;SDS011;16191;49.548;8.658;2023-02-01T02:58:17;8.75;;;4.63;;
29120;SDS011;16191;49.548;8.658;2023-02-01T03:01:04;10.85;;;4.40;;
29120;SDS011;16191;49.548;8.658;2023-02-01T03:03:52;9.55;;;4.50;;
29120;SDS011;16191;49.548;8.658;2023-02-01T03:06:36;10.65;;;5.10;;
29120;SDS011;16191;49.548;8.658;2023-02-01T03:09:04;7.82;;;4.93;;
29120;SDS011;16191;49.548;8.658;2023-02-01T03:11:36;10.38;;;4.72;;
29120;SDS011;16191;49.548;8.658;2023-02-01T03:14:23;10.65;;;5.00;;
29120;SDS011;16191;49.548;8.658;2023-02-01T03:17:00;10.70;;;5.35;;
29120;SDS011;16191;49.548;8.658;2023-02-01T03:19:35;7.22;;;4.88;;
29120;SDS011;16191;49.548;8.658;2023-02-01T03:22:11;12.95;;;6.20;;
29120;SDS011;16191;49.548;8.658;2023-02-01T03:24:41;11.18;;;5.32;;
29120;SDS011;16191;49.548;8.658;2023-02-01T03:30:04;11.35;;;5.72;;
29120;SDS011;16191;49.548;8.658;2023-02-01T03:32:36;9.27;;;5.65;;
29120;SDS011;16191;49.548;8.658;2023-02-01T03:35:33;12.02;;;5.82;;
29120;SDS011;16191;49.548;8.658;2023-02-01T03:41:12;11.18;;;5.90;;
29120;SDS011;16191;49.548;8.658;2023-02-01T03:43:47;7.22;;;4.80;;
29120;SDS011;16191;49.548;8.658;2023-02-01T03:46:24;13.02;;;5.47;;
29120;SDS011;16191;49.548;8.658;2023-02-01T03:49:01;9.77;;;5.70;;
29120;SDS011;16191;49.548;8.658;2023-02-01T03:51:32;9.80;;;4.72;;
29120;SDS011;16191;49.548;8.658;2023-02-01T03:54:02;7.28;;;5.00;;
29120;SDS011;16191;49.548;8.658;2023-02-01T03:56:32;15.98;;;5.30;;
29120;SDS011;16191;49.548;8.658;2023-02-01T03:59:04;8.52;;;5.40;;
29120;SDS011;16191;49.548;8.658;2023-02-01T04:01:33;7.17;;;5.10;;
29120;SDS011;16191;49.548;8.658;2023-02-01T04:04:00;9.18;;;5.22;;
29120;SDS011;16191;49.548;8.658;2023-02-01T04:06:27;16.02;;;5.78;;
29120;SDS011;16191;49.548;8.658;2023-02-01T04:08:58;13.48;;;5.55;;
29120;SDS011;16191;49.548;8.658;2023-02-01T04:11:25;13.38;;;6.07;;
29120;SDS011;16191;49.548;8.658;2023-02-01T04:13:53;12.48;;;6.50;;
29120;SDS011;16191;49.548;8.658;2023-02-01T04:16:20;12.45;;;6.10;;
29120;SDS011;16191;49.548;8.658;2023-02-01T04:18:47;10.60;;;6.72;;
29120;SDS011;16191;49.548;8.658;2023-02-01T04:21:13;10.80;;;6.18;;
29120;SDS011;16191;49.548;8.658;2023-02-01T04:23:40;12.90;;;6.13;;
29120;SDS011;16191;49.548;8.658;2023-02-01T04:26:07;13.13;;;6.05;;
29120;SDS011;16191;49.548;8.658;2023-02-01T04:28:33;13.05;;;7.00;;
29120;SDS011;16191;49.548;8.658;2023-02-01T04:31:00;12.13;;;6.07;;
29120;SDS011;16191;49.548;8.658;2023-02-01T04:33:26;14.00;;;6.40;;
29120;SDS011;16191;49.548;8.658;2023-02-01T04:35:53;11.38;;;6.20;;
29120;SDS011;16191;49.548;8.658;2023-02-01T04:38:20;15.05;;;6.00;;
29120;SDS011;16191;49.548;8.658;2023-02-01T04:40:47;12.55;;;5.88;;
29120;SDS011;16191;49.548;8.658;2023-02-01T04:43:15;13.32;;;6.78;;
29120;SDS011;16191;49.548;8.658;2023-02-01T04:45:47;10.15;;;6.53;;
29120;SDS011;16191;49.548;8.658;2023-02-01T04:48:15;15.13;;;6.03;;
29120;SDS011;16191;49.548;8.658;2023-02-01T04:50:44;15.95;;;6.40;;
29120;SDS011;16191;49.548;8.658;2023-02-01T04:53:14;11.70;;;6.45;;
29120;SDS011;16191;49.548;8.658;2023-02-01T04:55:41;9.70;;;5.82;;
29120;SDS011;16191;49.548;8.658;2023-02-01T04:58:09;14.23;;;8.27;;
29120;SDS011;16191;49.548;8.658;2023-02-01T05:00:37;13.20;;;6.70;;
29120;SDS011;16191;49.548;8.658;2023-02-01T05:03:04;11.73;;;7.60;;
29120;SDS011;16191;49.548;8.658;2023-02-01T05:05:30;12.55;;;6.53;;
29120;SDS011;16191;49.548;8.658;2023-02-01T05:07:57;11.63;;;7.00;;
29120;SDS011;16191;49.548;8.658;2023-02-01T05:10:24;12.73;;;6.60;;
29120;SDS011;16191;49.548;8.658;2023-02-01T05:12:51;14.20;;;6.80;;
29120;SDS011;16191;49.548;8.658;2023-02-01T05:15:36;12.65;;;5.60;;
29120;SDS011;16191;49.548;8.658;2023-02-01T05:18:03;12.55;;;6.78;;
29120;SDS011;16191;49.548;8.658;2023-02-01T05:20:30;10.20;;;6.13;;
29120;SDS011;16191;49.548;8.658;2023-02-01T05:22:56;12.65;;;6.85;;
29120;SDS011;16191;49.548;8.658;2023-02-01T05:25:23;13.82;;;7.88;;
29120;SDS011;16191;49.548;8.658;2023-02-01T05:27:50;14.77;;;7.80;;
29120;SDS011;16191;49.548;8.658;2023-02-01T05:30:17;15.38;;;8.52;;
29120;SDS011;16191;49.548;8.658;2023-02-01T05:32:44;19.90;;;8.05;;
29120;SDS011;16191;49.548;8.658;2023-02-01T05:35:10;15.23;;;8.52;;
29120;SDS011;16191;49.548;8.658;2023-02-01T05:37:37;14.82;;;8.38;;
29120;SDS011;16191;49.548;8.658;2023-02-01T05:40:04;13.43;;;7.70;;
29120;SDS011;16191;49.548;8.658;2023-02-01T05:42:31;13.15;;;7.30;;
29120;SDS011;16191;49.548;8.658;2023-02-01T05:44:58;12.65;;;7.88;;
29120;SDS011;16191;49.548;8.658;2023-02-01T05:47:25;19.83;;;7.38;;
29120;SDS011;16191;49.548;8.658;2023-02-01T05:49:52;12.40;;;7.20;;
29120;SDS011;16191;49.548;8.658;2023-02-01T05:52:18;9.98;;;6.05;;
29120;SDS011;16191;49.548;8.658;2023-02-01T05:54:46;14.43;;;7.97;;
29120;SDS011;16191;49.548;8.658;2023-02-01T05:57:13;16.98;;;7.75;;
29120;SDS011;16191;49.548;8.658;2023-02-01T05:59:41;14.43;;;7.35;;
29120;SDS011;16191;49.548;8.658;2023-02-01T06:02:08;21.73;;;8.35;;
29120;SDS011;16191;49.548;8.658;2023-02-01T06:04:36;17.52;;;8.15;;
29120;SDS011;16191;49.548;8.658;2023-02-01T06:07:03;13.35;;;6.75;;
29120;SDS011;16191;49.548;8.658;2023-02-01T06:09:29;13.95;;;6.38;;
29120;SDS011;16191;49.548;8.658;2023-02-01T06:11:56;11.20;;;6.30;;
29120;SDS011;16191;49.548;8.658;2023-02-01T06:14:24;14.70;;;6.70;;
29120;SDS011;16191;49.548;8.658;2023-02-01T06:16:50;12.10;;;6.18;;
29120;SDS011;16191;49.548;8.658;2023-02-01T06:19:17;10.48;;;6.20;;
29120;SDS011;16191;49.548;8.658;2023-02-01T06:21:44;16.02;;;6.75;;
29120;SDS011;16191;49.548;8.658;2023-02-01T06:24:11;13.88;;;5.97;;
29120;SDS011;16191;49.548;8.658;2023-02-01T06:26:38;13.13;;;5.97;;
29120;SDS011;16191;49.548;8.658;2023-02-01T06:29:06;12.07;;;5.05;;
29120;SDS011;16191;49.548;8.658;2023-02-01T06:31:33;15.73;;;5.97;;
29120;SDS011;16191;49.548;8.658;2023-02-01T06:34:00;14.50;;;6.10;;
29120;SDS011;16191;49.548;8.658;2023-02-01T06:36:26;14.27;;;6.25;;
29120;SDS011;16191;49.548;8.658;2023-02-01T06:38:53;18.17;;;7.75;;
29120;SDS011;16191;49.548;8.658;2023-02-01T06:41:22;18.27;;;8.98;;
29120;SDS011;16191;49.548;8.658;2023-02-01T06:43:49;20.05;;;8.13;;
29120;SDS011;16191;49.548;8.658;2023-02-01T06:46:16;16.35;;;7.47;;
29120;SDS011;16191;49.548;8.658;2023-02-01T06:48:43;16.88;;;7.85;;
29120;SDS011;16191;49.548;8.658;2023-02-01T06:51:18;20.33;;;7.47;;
29120;SDS011;16191;49.548;8.658;2023-02-01T06:53:47;21.63;;;7.43;;
29120;SDS011;16191;49.548;8.658;2023-02-01T06:56:14;12.93;;;7.13;;
29120;SDS011;16191;49.548;8.658;2023-02-01T06:58:41;13.05;;;6.53;;
29120;SDS011;16191;49.548;8.658;2023-02-01T07:01:08;13.35;;;6.18;;
29120;SDS011;16191;49.548;8.658;2023-02-01T07:03:42;19.33;;;7.05;;
29120;SDS011;16191;49.548;8.658;2023-02-01T07:06:09;13.43;;;6.45;;
29120;SDS011;16191;49.548;8.658;2023-02-01T07:08:37;14.95;;;7.72;;
29120;SDS011;16191;49.548;8.658;2023-02-01T07:11:05;16.90;;;7.00;;
29120;SDS011;16191;49.548;8.658;2023-02-01T07:13:34;15.93;;;6.65;;
29120;SDS011;16191;49.548;8.658;2023-02-01T07:16:01;12.52;;;6.53;;
29120;SDS011;16191;49.548;8.658;2023-02-01T07:18:30;13.98;;;6.53;;
29120;SDS011;16191;49.548;8.658;2023-02-01T07:20:57;13.70;;;6.47;;
29120;SDS011;16191;49.548;8.658;2023-02-01T07:23:25;13.88;;;6.90;;
29120;SDS011;16191;49.548;8.658;2023-02-01T07:25:57;13.35;;;5.80;;
29120;SDS011;16191;49.548;8.658;2023-02-01T07:28:25;17.77;;;5.30;;
29120;SDS011;16191;49.548;8.658;2023-02-01T07:30:54;14.40;;;5.90;;
29120;SDS011;16191;49.548;8.658;2023-02-01T07:33:22;10.60;;;5.30;;
29120;SDS011;16191;49.548;8.658;2023-02-01T07:35:53;16.63;;;5.75;;
29120;SDS011;16191;49.548;8.658;2023-02-01T07:38:20;17.00;;;5.68;;
29120;SDS011;16191;49.548;8.658;2023-02-01T07:40:48;17.85;;;5.50;;
29120;SDS011;16191;49.548;8.658;2023-02-01T07:43:14;16.73;;;5.80;;
29120;SDS011;16191;49.548;8.658;2023-02-01T07:45:41;14.20;;;5.60;;
29120;SDS011;16191;49.548;8.658;2023-02-01T07:48:08;14.50;;;6.22;;
29120;SDS011;16191;49.548;8.658;2023-02-01T07:50:34;17.40;;;5.97;;
29120;SDS011;16191;49.548;8.658;2023-02-01T07:53:01;13.45;;;5.78;;
29120;SDS011;16191;49.548;8.658;2023-02-01T07:55:27;10.75;;;5.40;;
29120;SDS011;16191;49.548;8.658;2023-02-01T07:57:58;19.38;;;5.50;;
29120;SDS011;16191;49.548;8.658;2023-02-01T08:00:26;13.52;;;4.35;;
29120;SDS011;16191;49.548;8.658;2023-02-01T08:03:11;11.18;;;5.07;;
29120;SDS011;16191;49.548;8.658;2023-02-01T08:05:37;15.82;;;5.50;;
29120;SDS011;16191;49.548;8.658;2023-02-01T08:08:05;12.32;;;4.53;;
29120;SDS011;16191;49.548;8.658;2023-02-01T08:10:32;16.45;;;5.10;;
29120;SDS011;16191;49.548;8.658;2023-02-01T08:12:59;15.15;;;4.82;;
29120;SDS011;16191;49.548;8.658;2023-02-01T08:15:26;18.25;;;6.10;;
29120;SDS011;16191;49.548;8.658;2023-02-01T08:17:54;15.57;;;5.03;;
29120;SDS011;16191;49.548;8.658;2023-02-01T08:20:21;16.42;;;5.22;;
29120;SDS011;16191;49.548;8.658;2023-02-01T08:22:57;12.52;;;4.63;;
29120;SDS011;16191;49.548;8.658;2023-02-01T08:25:24;13.60;;;4.57;;
29120;SDS011;16191;49.548;8.658;2023-02-01T08:27:51;12.52;;;5.05;;
29120;SDS011;16191;49.548;8.658;2023-02-01T08:30:18;15.90;;;5.05;;
29120;SDS011;16191;49.548;8.658;2023-02-01T08:32:45;12.20;;;4.47;;
29120;SDS011;16191;49.548;8.658;2023-02-01T08:35:11;12.02;;;4.63;;
29120;SDS011;16191;49.548;8.658;2023-02-01T08:37:38;15.63;;;4.85;;
29120;SDS011;16191;49.548;8.658;2023-02-01T08:40:05;13.73;;;4.72;;
29120;SDS011;16191;49.548;8.658;2023-02-01T08:42:34;14.90;;;4.40;;
29120;SDS011;16191;49.548;8.658;2023-02-01T08:45:24;13.18;;;4.53;;
29120;SDS011;16191;49.548;8.658;2023-02-01T08:47:52;12.30;;;4.45;;
29120;SDS011;16191;49.548;8.658;2023-02-01T08:50:20;9.68;;;4.45;;
29120;SDS011;16191;49.548;8.658;2023-02-01T08:52:48;15.10;;;4.47;;
29120;SDS011;16191;49.548;8.658;2023-02-01T08:55:15;13.65;;;3.88;;
29120;SDS011;16191;49.548;8.658;2023-02-01T08:57:42;13.98;;;3.67;;
29120;SDS011;16191;49.548;8.658;2023-02-01T09:00:14;14.57;;;3.78;;
29120;SDS011;16191;49.548;8.658;2023-02-01T09:02:43;16.70;;;3.58;;
29120;SDS011;16191;49.548;8.658;2023-02-01T09:05:11;14.40;;;3.65;;
29120;SDS011;16191;49.548;8.658;2023-02-01T09:07:43;12.23;;;3.50;;
29120;SDS011;16191;49.548;8.658;2023-02-01T09:10:09;13.23;;;3.90;;
29120;SDS011;16191;49.548;8.658;2023-02-01T09:12:36;14.63;;;5.18;;
29120;SDS011;16191;49.548;8.658;2023-02-01T09:15:04;26.10;;;6.95;;
29120;SDS011;16191;49.548;8.658;2023-02-01T09:17:33;20.17;;;5.85;;
29120;SDS011;16191;49.548;8.658;2023-02-01T09:20:00;14.27;;;5.05;;
29120;SDS011;16191;49.548;8.658;2023-02-01T09:22:27;19.98;;;5.70;;
29120;SDS011;16191;49.548;8.658;2023-02-01T09:24:54;15.63;;;4.90;;
29120;SDS011;16191;49.548;8.658;2023-02-01T09:27:21;21.02;;;5.63;;
29120;SDS011;16191;49.548;8.658;2023-02-01T09:29:48;19.38;;;6.38;;
29120;SDS011;16191;49.548;8.658;2023-02-01T09:32:19;21.85;;;6.22;;
29120;SDS011;16191;49.548;8.658;2023-02-01T09:34:46;23.17;;;6.15;;
29120;SDS011;16191;49.548;8.658;2023-02-01T09:37:13;25.23;;;5.15;;
29120;SDS011;16191;49.548;8.658;2023-02-01T09:39:40;19.58;;;5.50;;
29120;SDS011;16191;49.548;8.658;2023-02-01T09:47:23;21.30;;;4.68;;
29120;SDS011;16191;49.548;8.658;2023-02-01T09:49:55;29.42;;;4.95;;
29120;SDS011;16191;49.548;8.658;2023-02-01T09:52:29;19.55;;;4.68;;
29120;SDS011;16191;49.548;8.658;2023-02-01T09:55:16;24.65;;;4.82;;
29120;SDS011;16191;49.548;8.658;2023-02-01T09:57:51;21.73;;;4.70;;
29120;SDS011;16191;49.548;8.658;2023-02-01T10:00:30;20.33;;;4.40;;
29120;SDS011;16191;49.548;8.658;2023-02-01T10:03:01;29.88;;;5.00;;
29120;SDS011;16191;49.548;8.658;2023-02-01T10:10:47;17.52;;;4.05;;
29120;SDS011;16191;49.548;8.658;2023-02-01T10:29:43;15.73;;;3.33;;
29120;SDS011;16191;49.548;8.658;2023-02-01T10:32:16;33.00;;;6.00;;
29120;SDS011;16191;49.548;8.658;2023-02-01T10:35:00;23.40;;;4.72;;
29120;SDS011;16191;49.548;8.658;2023-02-01T10:37:32;27.60;;;4.07;;
29120;SDS011;16191;49.548;8.658;2023-02-01T10:40:03;23.20;;;4.32;;
29120;SDS011;16191;49.548;8.658;2023-02-01T10:42:36;23.75;;;3.80;;
29120;SDS011;16191;49.548;8.658;2023-02-01T10:45:02;25.13;;;4.85;;
29120;SDS011;16191;49.548;8.658;2023-02-01T10:47:30;21.35;;;4.72;;
29120;SDS011;16191;49.548;8.658;2023-02-01T10:49:59;18.52;;;3.53;;
29120;SDS011;16191;49.548;8.658;2023-02-01T10:52:49;22.00;;;4.10;;
29120;SDS011;16191;49.548;8.658;2023-02-01T10:55:27;16.85;;;3.88;;
29120;SDS011;16191;49.548;8.658;2023-02-01T10:58:10;27.00;;;4.65;;
29120;SDS011;16191;49.548;8.658;2023-02-01T11:00:44;25.17;;;4.55;;
29120;SDS011;16191;49.548;8.658;2023-02-01T11:05:47;33.85;;;5.07;;
29120;SDS011;16191;49.548;8.658;2023-02-01T11:08:15;25.60;;;4.25;;
29120;SDS011;16191;49.548;8.658;2023-02-01T11:10:44;15.60;;;3.45;;
29120;SDS011;16191;49.548;8.658;2023-02-01T11:13:13;21.98;;;3.88;;
29120;SDS011;16191;49.548;8.658;2023-02-01T11:15:44;18.67;;;3.65;;
29120;SDS011;16191;49.548;8.658;2023-02-01T11:18:14;24.95;;;4.55;;
29120;SDS011;16191;49.548;8.658;2023-02-01T11:20:46;25.42;;;5.32;;
29120;SDS011;16191;49.548;8.658;2023-02-01T11:23:19;25.90;;;4.57;;
29120;SDS011;16191;49.548;8.658;2023-02-01T11:25:58;19.02;;;3.88;;
29120;SDS011;16191;49.548;8.658;2023-02-01T11:28:33;14.95;;;2.85;;
29120;SDS011;16191;49.548;8.658;2023-02-01T11:31:05;24.15;;;3.67;;
29120;SDS011;16191;49.548;8.658;2023-02-01T11:33:36;12.82;;;3.60;;
29120;SDS011;16191;49.548;8.658;2023-02-01T11:36:06;18.98;;;3.92;;
29120;SDS011;16191;49.548;8.658;2023-02-01T11:38:51;27.42;;;4.63;;
29120;SDS011;16191;49.548;8.658;2023-02-01T11:41:21;20.75;;;4.13;;
29120;SDS011;16191;49.548;8.658;2023-02-01T11:43:56;21.10;;;3.80;;
29120;SDS011;16191;49.548;8.658;2023-02-01T11:46:29;20.65;;;4.53;;
29120;SDS011;16191;49.548;8.658;2023-02-01T11:49:13;22.70;;;3.97;;
29120;SDS011;16191;49.548;8.658;2023-02-01T11:55:05;19.92;;;3.65;;
29120;SDS011;16191;49.548;8.658;2023-02-01T11:57:38;18.92;;;3.92;;
29120;SDS011;16191;49.548;8.658;2023-02-01T12:08:23;22.67;;;3.92;;
29120;SDS011;16191;49.548;8.658;2023-02-01T12:13:38;20.38;;;4.07;;
29120;SDS011;16191;49.548;8.658;2023-02-01T12:21:48;23.38;;;3.65;;
29120;SDS011;16191;49.548;8.658;2023-02-01T12:40:53;23.42;;;4.03;;
29120;SDS011;16191;49.548;8.658;2023-02-01T12:43:38;24.27;;;4.15;;
29120;SDS011;16191;49.548;8.658;2023-02-01T12:46:28;22.38;;;4.65;;
29120;SDS011;16191;49.548;8.658;2023-02-01T12:49:21;18.35;;;3.08;;
29120;SDS011;16191;49.548;8.658;2023-02-01T12:52:18;20.85;;;3.95;;
29120;SDS011;16191;49.548;8.658;2023-02-01T12:58:06;22.10;;;3.90;;
29120;SDS011;16191;49.548;8.658;2023-02-01T13:03:31;19.63;;;3.83;;
29120;SDS011;16191;49.548;8.658;2023-02-01T13:06:02;22.00;;;3.95;;
29120;SDS011;16191;49.548;8.658;2023-02-01T13:08:38;20.40;;;3.35;;
29120;SDS011;16191;49.548;8.658;2023-02-01T13:11:12;18.15;;;3.70;;
29120;SDS011;16191;49.548;8.658;2023-02-01T13:16:44;25.40;;;4.60;;
29120;SDS011;16191;49.548;8.658;2023-02-01T13:19:19;26.45;;;4.95;;
29120;SDS011;16191;49.548;8.658;2023-02-01T13:21:53;24.70;;;4.97;;
29120;SDS011;16191;49.548;8.658;2023-02-01T13:27:16;15.43;;;3.15;;
29120;SDS011;16191;49.548;8.658;2023-02-01T13:29:59;19.40;;;3.55;;
29120;SDS011;16191;49.548;8.658;2023-02-01T13:42:13;16.30;;;3.95;;
29120;SDS011;16191;49.548;8.658;2023-02-01T13:47:22;17.65;;;3.25;;
29120;SDS011;16191;49.548;8.658;2023-02-01T13:50:03;16.97;;;3.47;;
29120;SDS011;16191;49.548;8.658;2023-02-01T13:52:43;21.27;;;4.28;;
29120;SDS011;16191;49.548;8.658;2023-02-01T13:57:49;19.83;;;3.55;;
29120;SDS011;16191;49.548;8.658;2023-02-01T14:00:25;22.75;;;3.83;;
29120;SDS011;16191;49.548;8.658;2023-02-01T14:13:33;14.40;;;3.08;;
29120;SDS011;16191;49.548;8.658;2023-02-01T14:21:18;17.60;;;3.65;;
29120;SDS011;16191;49.548;8.658;2023-02-01T14:26:26;17.98;;;4.15;;
29120;SDS011;16191;49.548;8.658;2023-02-01T14:39:55;16.38;;;2.92;;
29120;SDS011;16191;49.548;8.658;2023-02-01T14:50:22;21.58;;;3.30;;
29120;SDS011;16191;49.548;8.658;2023-02-01T14:58:15;13.02;;;2.50;;
29120;SDS011;16191;49.548;8.658;2023-02-01T15:00:50;16.33;;;3.58;;
29120;SDS011;16191;49.548;8.658;2023-02-01T15:15:08;15.23;;;3.17;;
29120;SDS011;16191;49.548;8.658;2023-02-01T15:17:41;18.02;;;3.30;;
29120;SDS011;16191;49.548;8.658;2023-02-01T15:22:38;14.25;;;3.35;;
29120;SDS011;16191;49.548;8.658;2023-02-01T15:25:05;20.23;;;3.90;;
29120;SDS011;16191;49.548;8.658;2023-02-01T15:27:32;17.42;;;3.35;;
29120;SDS011;16191;49.548;8.658;2023-02-01T15:30:16;23.90;;;4.40;;
29120;SDS011;16191;49.548;8.658;2023-02-01T15:32:45;21.10;;;4.00;;
29120;SDS011;16191;49.548;8.658;2023-02-01T15:43:34;13.77;;;3.13;;
29120;SDS011;16191;49.548;8.658;2023-02-01T15:46:08;15.45;;;2.80;;
29120;SDS011;16191;49.548;8.658;2023-02-01T15:48:38;15.02;;;2.97;;
29120;SDS011;16191;49.548;8.658;2023-02-01T15:51:13;16.75;;;3.50;;
29120;SDS011;16191;49.548;8.658;2023-02-01T15:53:44;16.38;;;3.50;;
29120;SDS011;16191;49.548;8.658;2023-02-01T15:56:14;23.83;;;3.05;;
29120;SDS011;16191;49.548;8.658;2023-02-01T15:58:50;18.20;;;3.53;;
29120;SDS011;16191;49.548;8.658;2023-02-01T16:01:23;15.65;;;3.00;;
29120;SDS011;16191;49.548;8.658;2023-02-01T16:03:54;21.08;;;3.60;;
29120;SDS011;16191;49.548;8.658;2023-02-01T16:06:29;15.18;;;2.65;;
29120;SDS011;16191;49.548;8.658;2023-02-01T16:11:30;16.00;;;3.75;;
29120;SDS011;16191;49.548;8.658;2023-02-01T16:13:59;17.63;;;4.30;;
29120;SDS011;16191;49.548;8.658;2023-02-01T16:16:27;17.83;;;3.40;;
29120;SDS011;16191;49.548;8.658;2023-02-01T16:18:55;23.10;;;3.58;;
29120;SDS011;16191;49.548;8.658;2023-02-01T16:21:22;13.25;;;3.17;;
29120;SDS011;16191;49.548;8.658;2023-02-01T16:23:52;19.10;;;3.20;;
29120;SDS011;16191;49.548;8.658;2023-02-01T16:26:19;15.45;;;3.05;;
29120;SDS011;16191;49.548;8.658;2023-02-01T16:28:47;19.90;;;3.20;;
29120;SDS011;16191;49.548;8.658;2023-02-01T16:31:18;17.15;;;3.55;;
29120;SDS011;16191;49.548;8.658;2023-02-01T16:33:50;14.25;;;2.78;;
29120;SDS011;16191;49.548;8.658;2023-02-01T16:36:18;19.60;;;3.45;;
29120;SDS011;16191;49.548;8.658;2023-02-01T16:38:45;18.52;;;3.67;;
29120;SDS011;16191;49.548;8.658;2023-02-01T16:41:16;13.88;;;2.85;;
29120;SDS011;16191;49.548;8.658;2023-02-01T16:43:44;18.15;;;3.20;;
29120;SDS011;16191;49.548;8.658;2023-02-01T16:46:15;19.80;;;3.25;;
29120;SDS011;16191;49.548;8.658;2023-02-01T16:48:53;18.75;;;3.97;;
29120;SDS011;16191;49.548;8.658;2023-02-01T16:51:27;18.27;;;4.03;;
29120;SDS011;16191;49.548;8.658;2023-02-01T16:53:58;23.83;;;3.85;;
29120;SDS011;16191;49.548;8.658;2023-02-01T16:56:30;21.58;;;3.60;;
29120;SDS011;16191;49.548;8.658;2023-02-01T16:58:59;18.38;;;3.42;;
29120;SDS011;16191;49.548;8.658;2023-02-01T17:01:25;26.65;;;4.30;;
29120;SDS011;16191;49.548;8.658;2023-02-01T17:03:52;26.27;;;3.85;;
29120;SDS011;16191;49.548;8.658;2023-02-01T17:06:20;19.42;;;3.53;;
29120;SDS011;16191;49.548;8.658;2023-02-01T17:11:19;17.05;;;4.90;;
29120;SDS011;16191;49.548;8.658;2023-02-01T17:13:46;21.17;;;4.32;;
29120;SDS011;16191;49.548;8.658;2023-02-01T17:16:19;22.73;;;3.95;;
29120;SDS011;16191;49.548;8.658;2023-02-01T17:19:10;20.80;;;4.22;;
29120;SDS011;16191;49.548;8.658;2023-02-01T17:21:44;18.33;;;3.33;;
29120;SDS011;16191;49.548;8.658;2023-02-01T17:24:14;24.00;;;4.00;;
29120;SDS011;16191;49.548;8.658;2023-02-01T17:26:42;20.75;;;3.67;;
29120;SDS011;16191;49.548;8.658;2023-02-01T17:29:10;28.98;;;3.90;;
29120;SDS011;16191;49.548;8.658;2023-02-01T17:31:42;15.73;;;3.10;;
29120;SDS011;16191;49.548;8.658;2023-02-01T17:34:10;17.98;;;3.35;;
29120;SDS011;16191;49.548;8.658;2023-02-01T17:39:10;16.10;;;3.50;;
29120;SDS011;16191;49.548;8.658;2023-02-01T17:41:58;20.25;;;3.72;;
29120;SDS011;16191;49.548;8.658;2023-02-01T17:44:25;18.23;;;3.22;;
29120;SDS011;16191;49.548;8.658;2023-02-01T17:46:52;18.00;;;3.40;;
29120;SDS011;16191;49.548;8.658;2023-02-01T17:49:18;20.58;;;3.22;;
29120;SDS011;16191;49.548;8.658;2023-02-01T17:51:45;19.23;;;3.65;;
29120;SDS011;16191;49.548;8.658;2023-02-01T17:54:12;21.17;;;3.88;;
29120;SDS011;16191;49.548;8.658;2023-02-01T17:56:39;19.10;;;3.20;;
29120;SDS011;16191;49.548;8.658;2023-02-01T17:59:06;23.95;;;3.42;;
29120;SDS011;16191;49.548;8.658;2023-02-01T18:01:33;16.95;;;3.67;;
29120;SDS011;16191;49.548;8.658;2023-02-01T18:04:00;18.27;;;4.60;;